Time;durP1;ratioP1;P1;durP2;ratioP2;P2;SDS_P1;SDS_P2;PMS_P1;PMS_P2;Temp;Humidity;BMP_temperature;BMP_pressure;BME280_temperature;BME280_humidity;BME280_pressure;Samples;Min_cycle;Max_cycle;Signal;HPM_P1;HPM_P2
2021/06/04 00:00:49;;;;;;;4.20;3.50;;;;;;;22.58;60.13;100103.72;2081986;28;20703;-49
2021/06/04 00:01:50;;;;;;;4.43;3.17;;;;;;;22.58;59.94;100099.09;2079808;28;20068;-50
2021/06/04 00:02:51;;;;;;;3.30;3.00;;;;;;;22.56;59.81;100103.91;2080635;28;20095;-48
2021/06/04 00:03:52;;;;;;;3.85;2.90;;;;;;;22.57;60.08;100105.63;2081760;28;20029;-47
2021/06/04 00:04:53;;;;;;;5.77;3.40;;;;;;;22.55;59.93;100104.94;2081596;28;20088;-50
2021/06/04 00:05:55;;;;;;;4.03;3.70;;;;;;;22.57;60.17;100113.88;2075278;28;20280;-50
2021/06/04 00:06:55;;;;;;;3.47;3.10;;;;;;;22.58;59.83;100112.81;2081550;28;20029;-45
2021/06/04 00:07:55;;;;;;;6.73;3.53;;;;;;;22.56;59.85;100109.38;2081470;28;20052;-50
2021/06/04 00:08:56;;;;;;;4.80;3.80;;;;;;;22.58;60.07;100107.34;2076481;28;20026;-47
2021/06/04 00:09:57;;;;;;;3.37;3.00;;;;;;;22.56;59.84;100109.38;2077552;28;20029;-48
2021/06/04 00:11:05;;;;;;;4.67;3.30;;;;;;;22.55;59.81;100098.59;2081803;28;20036;-48
2021/06/04 00:12:06;;;;;;;4.78;3.63;;;;;;;22.54;60.13;100097.75;2079700;28;20809;-48
2021/06/04 00:13:18;;;;;;;3.40;2.92;;;;;;;22.53;59.93;100104.25;2078839;28;20032;-49
2021/06/04 00:14:27;;;;;;;4.03;3.13;;;;;;;22.54;60.07;100105.97;2079814;28;20071;-48
2021/06/04 00:15:27;;;;;;;3.75;3.40;;;;;;;22.54;59.87;100105.97;2081159;28;20033;-47
2021/06/04 00:16:36;;;;;;;4.37;3.17;;;;;;;22.54;59.91;100102.34;2081776;28;20472;-50
2021/06/04 00:17:36;;;;;;;4.00;2.90;;;;;;;22.54;59.91;100110.59;2081347;28;20036;-49
2021/06/04 00:18:39;;;;;;;3.80;3.33;;;;;;;22.54;59.92;100105.97;2080460;28;20025;-50
2021/06/04 00:19:40;;;;;;;3.78;3.30;;;;;;;22.55;60.23;100106.84;2081853;28;20072;-50
2021/06/04 00:20:41;;;;;;;4.60;3.50;;;;;;;22.55;60.15;100106.84;2081366;28;20063;-48
2021/06/04 00:21:46;;;;;;;4.03;3.47;;;;;;;22.53;59.92;100109.75;2079784;28;20268;-46
2021/06/04 00:22:47;;;;;;;4.47;3.20;;;;;;;22.54;59.92;100099.59;2080656;28;20091;-49
2021/06/04 00:23:47;;;;;;;3.53;2.97;;;;;;;22.55;59.81;100101.34;2081830;28;20060;-49
2021/06/04 00:24:51;;;;;;;3.63;3.20;;;;;;;22.55;59.74;100112.31;2079971;28;20105;-50
2021/06/04 00:25:52;;;;;;;4.75;3.40;;;;;;;22.54;60.01;100105.97;2080342;28;20065;-46
2021/06/04 00:26:53;;;;;;;4.70;3.07;;;;;;;22.54;60.17;100105.09;2081159;28;20040;-49
2021/06/04 00:27:53;;;;;;;4.75;3.13;;;;;;;22.55;60.13;100106.84;2081421;28;20502;-51
2021/06/04 00:28:54;;;;;;;3.67;3.30;;;;;;;22.55;59.93;100110.44;2079890;28;20080;-51
2021/06/04 00:29:54;;;;;;;4.80;3.80;;;;;;;22.55;59.89;100113.19;2080714;28;20107;-46
2021/06/04 00:30:55;;;;;;;3.87;3.43;;;;;;;22.54;60.06;100114.22;2081373;28;20033;-49
2021/06/04 00:31:56;;;;;;;3.57;3.27;;;;;;;22.55;60.01;100107.69;2081780;28;20026;-50
2021/06/04 00:32:56;;;;;;;3.57;3.00;;;;;;;22.54;60.09;100111.47;2080249;28;20340;-50
2021/06/04 00:33:57;;;;;;;5.33;2.93;;;;;;;22.55;59.96;100113.19;2081348;28;20040;-49
2021/06/04 00:34:58;;;;;;;3.53;3.10;;;;;;;22.54;60.01;100111.47;2081730;28;20057;-49
2021/06/04 00:35:58;;;;;;;3.53;3.10;;;;;;;22.54;60.11;100111.47;2080660;28;20028;-50
2021/06/04 00:36:59;;;;;;;5.00;4.03;;;;;;;22.55;60.10;100107.69;2081675;28;20088;-46
2021/06/04 00:38:00;;;;;;;3.37;3.07;;;;;;;22.55;60.02;100115.94;2080741;28;20038;-55
2021/06/04 00:39:03;;;;;;;4.20;3.47;;;;;;;22.54;60.16;100116.97;2080443;28;20037;-49
2021/06/04 00:40:10;;;;;;;4.25;3.53;;;;;;;22.54;60.24;100118.84;2081533;28;20032;-47
2021/06/04 00:41:20;;;;;;;3.22;2.70;;;;;;;22.53;59.83;100117.97;2071381;28;20310;-50
2021/06/04 00:42:28;;;;;;;4.32;3.33;;;;;;;22.52;59.93;100119.03;2073309;28;20037;-49
2021/06/04 00:43:29;;;;;;;4.18;3.42;;;;;;;22.53;59.93;100126.22;2070483;28;20054;-48
2021/06/04 00:44:29;;;;;;;5.60;3.10;;;;;;;22.54;60.22;100122.47;2078964;28;20029;-51
2021/06/04 00:45:33;;;;;;;3.90;3.40;;;;;;;22.54;60.17;100122.47;2081682;28;20026;-50
2021/06/04 00:46:34;;;;;;;4.35;3.30;;;;;;;22.54;59.92;100122.47;2080512;28;20068;-47
2021/06/04 00:47:34;;;;;;;3.88;2.88;;;;;;;22.54;59.98;100129.81;2080421;28;20435;-48
2021/06/04 00:48:36;;;;;;;3.10;2.77;;;;;;;22.54;59.84;100121.56;2081333;28;20092;-51
2021/06/04 00:49:38;;;;;;;3.85;3.33;;;;;;;22.53;60.14;100131.72;2080025;28;20025;-48
2021/06/04 00:50:46;;;;;;;3.58;2.67;;;;;;;22.53;59.93;100130.88;2081901;28;20025;-48
2021/06/04 00:51:51;;;;;;;3.97;3.20;;;;;;;22.52;59.99;100135.50;2078091;28;20115;-46
2021/06/04 00:52:52;;;;;;;3.67;2.83;;;;;;;22.53;59.99;100142.69;2079478;28;20040;-47
2021/06/04 00:53:54;;;;;;;5.97;3.57;;;;;;;22.52;59.86;100146.50;2080962;28;20052;-47
2021/06/04 00:54:57;;;;;;;3.80;2.58;;;;;;;22.52;59.94;100142.91;2080331;28;20025;-49
2021/06/04 00:55:58;;;;;;;3.80;3.22;;;;;;;22.54;60.05;100146.31;2079974;28;20030;-47
2021/06/04 00:56:59;;;;;;;3.97;3.08;;;;;;;22.52;59.84;100141.00;2083828;28;20139;-45
2021/06/04 00:58:00;;;;;;;4.68;3.65;;;;;;;22.52;60.13;100146.50;2079934;28;20036;-49
2021/06/04 00:59:01;;;;;;;3.90;3.13;;;;;;;22.52;60.13;100141.00;2081296;28;20036;-49
2021/06/04 01:00:26;;;;;;;4.37;3.50;;;;;;;22.51;60.19;100147.50;2080490;28;20056;-49
2021/06/04 01:01:30;;;;;;;3.30;3.00;;;;;;;22.51;59.98;100155.75;2069775;28;20065;-48
2021/06/04 01:02:31;;;;;;;4.97;3.30;;;;;;;22.51;60.24;100153.00;2081035;28;20086;-50
2021/06/04 01:03:36;;;;;;;3.03;2.58;;;;;;;22.51;60.24;100158.50;2079176;28;20090;-48
2021/06/04 01:04:37;;;;;;;4.03;2.97;;;;;;;22.52;60.14;100159.38;2081291;28;20124;-48
2021/06/04 01:05:40;;;;;;;3.42;3.10;;;;;;;22.50;60.04;100156.78;2081403;28;20029;-47
2021/06/04 01:06:54;;;;;;;3.83;3.40;;;;;;;22.50;60.08;100151.28;2079292;28;20033;-47
2021/06/04 01:08:04;;;;;;;3.70;3.30;;;;;;;22.49;60.02;100146.84;2081090;28;20670;-50
2021/06/04 01:09:07;;;;;;;3.20;2.88;;;;;;;22.50;60.06;100154.03;2072441;28;20041;-46
2021/06/04 01:10:34;;;;;;;3.40;2.92;;;;;;;22.49;60.14;100160.59;2071555;28;20026;-46
2021/06/04 01:12:13;;;;;;;3.42;2.83;;;;;;;22.47;60.20;100159.88;2063291;28;20106;-46
2021/06/04 01:13:19;;;;;;;5.78;3.55;;;;;;;22.47;60.05;100154.38;2073927;28;20830;-48
2021/06/04 01:14:23;;;;;;;3.45;2.90;;;;;;;22.48;60.22;100156.09;2080014;28;20027;-48
2021/06/04 01:15:34;;;;;;;3.63;3.08;;;;;;;22.47;60.29;100158.00;2080370;28;20030;-48
2021/06/04 01:16:53;;;;;;;3.80;3.08;;;;;;;22.47;60.26;100154.38;2081259;28;20121;-49
2021/06/04 01:18:05;;;;;;;4.95;3.70;;;;;;;22.46;60.02;100159.03;2081763;28;20037;-51
2021/06/04 01:19:18;;;;;;;3.35;2.90;;;;;;;22.47;60.32;100148.91;2074448;28;20111;-48
2021/06/04 01:20:25;;;;;;;4.13;3.60;;;;;;;22.47;59.90;100151.66;2076090;28;20038;-50
2021/06/04 01:21:44;;;;;;;4.50;2.85;;;;;;;22.45;60.25;100145.47;2081658;28;20151;-51
2021/06/04 01:23:10;;;;;;;3.72;3.08;;;;;;;22.45;60.04;100148.19;2079690;28;20034;-46
2021/06/04 01:24:27;;;;;;;3.20;2.90;;;;;;;22.45;60.18;100145.47;2080281;28;20033;-49
2021/06/04 01:25:48;;;;;;;3.95;3.05;;;;;;;22.43;60.19;100148.38;2080592;28;20017;-47
2021/06/04 01:26:53;;;;;;;4.22;3.08;;;;;;;22.44;60.12;100154.72;2079189;28;20037;-49
2021/06/04 01:27:56;;;;;;;3.47;2.95;;;;;;;22.44;60.23;100149.22;2081368;28;20087;-48
2021/06/04 01:29:07;;;;;;;4.70;3.35;;;;;;;22.45;60.18;100139.97;2080627;28;20029;-49
2021/06/04 01:30:31;;;;;;;3.67;3.28;;;;;;;22.44;60.36;100146.47;2080194;28;20025;-49
2021/06/04 01:31:40;;;;;;;3.45;3.10;;;;;;;22.44;60.11;100143.72;2073270;28;20061;-50
2021/06/04 01:32:42;;;;;;;3.95;3.40;;;;;;;22.46;60.10;100155.41;2080858;28;20029;-50
2021/06/04 01:34:04;;;;;;;3.92;3.45;;;;;;;22.44;60.12;100151.97;2080178;28;20021;-47
2021/06/04 01:35:22;;;;;;;4.80;2.97;;;;;;;22.44;60.25;100149.22;2074780;28;20030;-49
2021/06/04 01:36:27;;;;;;;3.30;3.00;;;;;;;22.43;60.02;100148.38;2081126;28;20037;-47
2021/06/04 01:37:31;;;;;;;3.40;2.78;;;;;;;22.45;60.22;100145.47;2079712;28;20037;-48
2021/06/04 01:38:38;;;;;;;3.00;2.70;;;;;;;22.45;60.11;100145.47;2080995;28;20095;-50
2021/06/04 01:39:42;;;;;;;5.40;3.63;;;;;;;22.45;60.24;100145.47;2077104;28;20447;-48
2021/06/04 01:40:48;;;;;;;3.42;3.13;;;;;;;22.44;60.15;100151.97;2068462;28;20085;-48
2021/06/04 01:41:50;;;;;;;4.28;3.20;;;;;;;22.45;60.10;100150.94;2071555;28;20036;-47
2021/06/04 01:42:52;;;;;;;3.53;3.10;;;;;;;22.44;60.35;100150.09;2080673;28;20512;-46
2021/06/04 01:43:57;;;;;;;3.28;2.97;;;;;;;22.45;60.19;100150.94;2078429;28;20045;-47
2021/06/04 01:45:04;;;;;;;3.63;3.17;;;;;;;22.45;60.18;100150.94;2080543;28;20052;-49
2021/06/04 01:46:14;;;;;;;3.72;2.88;;;;;;;22.45;60.21;100156.44;2080658;28;20030;-46
2021/06/04 01:47:20;;;;;;;3.42;2.92;;;;;;;22.46;60.24;100149.91;2080229;28;20040;-49
2021/06/04 01:48:27;;;;;;;3.50;3.20;;;;;;;22.45;60.09;100150.94;2079810;28;20026;-50
2021/06/04 01:49:34;;;;;;;3.67;3.25;;;;;;;22.44;60.07;100144.59;2080355;28;20021;-48
2021/06/04 01:50:45;;;;;;;3.28;2.97;;;;;;;22.43;60.10;100147.50;2079635;28;20499;-49
2021/06/04 01:51:51;;;;;;;3.72;3.00;;;;;;;22.44;60.18;100143.72;2080731;28;20045;-48
2021/06/04 01:52:54;;;;;;;3.53;3.03;;;;;;;22.44;60.11;100143.72;2080303;28;20029;-49
2021/06/04 01:53:58;;;;;;;3.67;3.33;;;;;;;22.44;60.03;100143.72;2078843;28;20534;-47
2021/06/04 01:55:04;;;;;;;3.67;3.33;;;;;;;22.44;60.20;100149.22;2080554;28;20032;-48
2021/06/04 01:56:32;;;;;;;5.03;2.97;;;;;;;22.44;60.16;100151.97;2080921;28;20033;-48
2021/06/04 01:57:38;;;;;;;4.05;3.35;;;;;;;22.43;60.35;100147.50;2079259;28;20049;-46
2021/06/04 01:58:48;;;;;;;3.55;3.25;;;;;;;22.42;60.10;100135.66;2072090;28;20044;-47
2021/06/04 01:59:52;;;;;;;5.90;3.30;;;;;;;22.43;60.24;100144.75;2072142;28;20030;-47
2021/06/04 02:01:01;;;;;;;4.22;2.67;;;;;;;22.43;60.10;100144.75;2080526;28;20044;-48
2021/06/04 02:02:04;;;;;;;3.53;2.88;;;;;;;22.43;60.12;100142.88;2077904;28;20029;-49
2021/06/04 02:03:08;;;;;;;3.60;2.70;;;;;;;22.43;60.19;100144.75;2070908;28;20493;-48
2021/06/04 02:04:17;;;;;;;5.60;3.17;;;;;;;22.42;60.03;100151.31;2072395;28;20033;-49
2021/06/04 02:05:21;;;;;;;4.18;3.13;;;;;;;22.43;60.28;100148.38;2076316;28;20036;-49
2021/06/04 02:06:21;;;;;;;3.50;3.20;;;;;;;22.42;60.14;100146.66;2077393;28;20033;-51
2021/06/04 02:07:32;;;;;;;3.83;3.30;;;;;;;22.42;60.06;100145.81;2081249;28;20036;-50
2021/06/04 02:08:35;;;;;;;3.53;3.00;;;;;;;22.43;60.24;100158.50;2071797;28;20030;-49
2021/06/04 02:09:37;;;;;;;2.92;2.67;;;;;;;22.44;59.95;100149.22;2072052;28;20037;-49
2021/06/04 02:10:42;;;;;;;2.97;2.63;;;;;;;22.42;60.12;100146.66;2079694;28;20029;-50
2021/06/04 02:11:43;;;;;;;5.20;3.40;;;;;;;22.43;60.03;100153.00;2080319;28;20033;-47
2021/06/04 02:12:49;;;;;;;2.85;2.53;;;;;;;22.42;60.17;100149.41;2079998;28;20025;-47
2021/06/04 02:13:50;;;;;;;3.13;2.83;;;;;;;22.42;60.20;100157.66;2067797;28;20103;-47
2021/06/04 02:14:55;;;;;;;4.00;3.00;;;;;;;22.42;60.20;100154.91;2070328;28;20037;-47
2021/06/04 02:16:10;;;;;;;4.05;2.90;;;;;;;22.41;60.18;100160.56;2080311;28;20029;-49
2021/06/04 02:17:22;;;;;;;4.13;3.28;;;;;;;22.41;60.29;100149.56;2081113;28;20060;-48
2021/06/04 02:18:32;;;;;;;4.32;3.17;;;;;;;22.41;60.12;100155.91;2080744;28;20033;-48
2021/06/04 02:19:39;;;;;;;3.42;2.90;;;;;;;22.41;60.43;100149.56;2083278;28;20029;-47
2021/06/04 02:20:42;;;;;;;3.78;3.03;;;;;;;22.41;60.12;100149.56;2080889;28;20029;-46
2021/06/04 02:22:21;;;;;;;3.60;2.85;;;;;;;22.39;60.12;100152.50;2079202;28;20369;-46
2021/06/04 02:23:42;;;;;;;3.60;3.22;;;;;;;22.38;60.42;100149.91;2078594;28;20041;-49
2021/06/04 02:25:02;;;;;;;5.40;3.60;;;;;;;22.39;60.40;100152.50;2081599;28;20415;-47
2021/06/04 02:26:15;;;;;;;4.05;3.20;;;;;;;22.39;60.03;100151.63;2080443;28;20044;-48
2021/06/04 02:27:19;;;;;;;;;;;;;;;22.35;60.26;100150.25;2083217;28;20033;-47
2021/06/04 02:28:39;;;;;;;3.35;3.05;;;;;;;22.37;60.32;100153.69;2085024;28;20480;-48
2021/06/04 02:29:56;;;;;;;3.67;3.05;;;;;;;22.36;60.35;100147.31;2081455;28;20211;-50
2021/06/04 02:31:04;;;;;;;3.78;3.00;;;;;;;22.38;60.23;100144.41;2082170;28;20037;-48
2021/06/04 02:32:42;;;;;;;3.35;3.05;;;;;;;22.37;60.33;100143.56;2080760;28;20044;-48
2021/06/04 02:33:51;;;;;;;3.53;2.72;;;;;;;22.36;60.15;100141.84;2066234;28;20041;-48
2021/06/04 02:35:04;;;;;;;3.28;2.97;;;;;;;22.36;60.15;100140.97;2082812;28;20088;-50
2021/06/04 02:36:28;;;;;;;3.60;3.15;;;;;;;22.37;60.24;100143.56;2081762;28;20079;-49
2021/06/04 02:37:35;;;;;;;4.25;3.45;;;;;;;22.37;60.23;100137.22;2081688;28;20033;-49
2021/06/04 02:38:53;;;;;;;3.08;2.78;;;;;;;22.36;60.19;100136.34;2075367;28;20025;-47
2021/06/04 02:40:00;;;;;;;3.28;2.97;;;;;;;22.37;60.16;100142.72;2079196;28;20022;-48
2021/06/04 02:41:09;;;;;;;3.40;3.10;;;;;;;22.38;60.04;100153.50;2085582;28;20057;-47
2021/06/04 02:42:16;;;;;;;3.60;3.28;;;;;;;22.38;59.97;100155.41;2080017;28;20033;-50
2021/06/04 02:43:55;;;;;;;4.05;3.22;;;;;;;22.38;60.29;100160.91;2081809;28;20075;-48
2021/06/04 02:45:03;;;;;;;6.60;2.90;;;;;;;22.38;60.22;100160.91;2073141;28;20109;-47
2021/06/04 02:46:11;;;;;;;3.53;3.13;;;;;;;22.39;59.98;100159.84;2082650;28;20034;-47
2021/06/04 02:47:20;;;;;;;3.00;2.58;;;;;;;22.38;60.25;100160.91;2081579;28;20087;-50
2021/06/04 02:48:22;;;;;;;6.65;3.95;;;;;;;22.39;60.16;100168.09;2081102;28;20037;-46
2021/06/04 02:49:24;;;;;;;5.10;3.33;;;;;;;22.40;60.15;100172.56;2081761;28;20680;-49
2021/06/04 02:50:27;;;;;;;3.50;3.08;;;;;;;22.39;60.31;100170.84;2081414;28;20029;-48
2021/06/04 02:51:51;;;;;;;3.35;3.05;;;;;;;22.39;59.89;100174.47;2082806;28;20029;-49
2021/06/04 02:52:52;;;;;;;3.00;2.70;;;;;;;22.40;60.30;100178.06;2080451;28;20044;-46
2021/06/04 02:53:57;;;;;;;3.63;2.85;;;;;;;22.40;59.92;100175.31;2078853;28;20076;-48
2021/06/04 02:54:59;;;;;;;3.85;2.67;;;;;;;22.41;59.95;100182.53;2081956;28;20553;-49
2021/06/04 02:56:03;;;;;;;3.78;3.33;;;;;;;22.40;60.07;100175.31;2072530;28;20076;-49
2021/06/04 02:57:07;;;;;;;3.45;2.95;;;;;;;22.40;60.23;100169.84;2072609;28;20820;-48
2021/06/04 02:58:08;;;;;;;3.10;2.63;;;;;;;22.41;60.11;100179.78;2082014;28;20029;-49
2021/06/04 02:59:20;;;;;;;3.20;2.90;;;;;;;22.39;59.92;100179.09;2081231;28;20029;-45
2021/06/04 03:00:28;;;;;;;;;;;;;;;22.35;60.21;100184.06;2083067;28;20136;-46
2021/06/04 03:01:32;;;;;;;3.30;3.00;;;;;;;22.35;60.28;100181.31;2080716;28;19913;-48
2021/06/04 03:02:33;;;;;;;3.30;2.80;;;;;;;22.37;60.18;100181.16;2081837;28;20025;-47
2021/06/04 03:03:34;;;;;;;3.70;2.90;;;;;;;22.38;60.08;100175.47;2082353;28;20140;-49
2021/06/04 03:04:38;;;;;;;4.45;3.53;;;;;;;22.38;59.99;100183.72;2079885;28;20090;-46
2021/06/04 03:05:39;;;;;;;6.63;2.78;;;;;;;22.39;59.91;100179.09;2081773;28;20594;-49
2021/06/04 03:06:43;;;;;;;3.08;2.78;;;;;;;22.39;60.03;100184.56;2082408;28;20036;-49
2021/06/04 03:07:44;;;;;;;3.60;2.55;;;;;;;22.40;59.98;100197.28;2080872;28;20059;-46
2021/06/04 03:08:45;;;;;;;2.90;2.70;;;;;;;22.40;60.03;100194.56;2082395;28;20029;-48
2021/06/04 03:09:46;;;;;;;4.30;3.08;;;;;;;22.39;60.14;100201.94;2081989;28;20032;-47
2021/06/04 03:10:50;;;;;;;3.33;2.90;;;;;;;22.39;60.01;100196.44;2081351;28;20025;-47
2021/06/04 03:11:55;;;;;;;3.25;2.95;;;;;;;22.38;60.12;100200.19;2082330;28;20403;-47
2021/06/04 03:12:56;;;;;;;3.45;3.00;;;;;;;22.39;59.99;100201.94;2078622;28;20087;-48
2021/06/04 03:13:58;;;;;;;3.15;2.80;;;;;;;22.40;60.01;100202.78;2082812;28;20068;-49
2021/06/04 03:14:59;;;;;;;;;;;;;;;22.35;60.31;100211.53;2079691;28;20044;-46
2021/06/04 03:16:05;;;;;;;3.35;2.67;;;;;;;22.36;59.90;100206.88;2081995;28;19913;-49
2021/06/04 03:17:09;;;;;;;2.95;2.63;;;;;;;22.36;60.06;100202.25;2082486;28;20025;-48
2021/06/04 03:18:14;;;;;;;3.65;2.95;;;;;;;22.37;59.94;100203.13;2080732;28;20040;-47
2021/06/04 03:19:16;;;;;;;3.25;2.85;;;;;;;22.37;59.90;100204.00;2071598;28;20038;-48
2021/06/04 03:20:24;;;;;;;3.70;3.05;;;;;;;22.37;60.21;100208.63;2074078;28;20048;-49
2021/06/04 03:21:30;;;;;;;3.78;2.80;;;;;;;22.38;60.18;100210.34;2081024;28;20036;-45
2021/06/04 03:22:34;;;;;;;3.55;3.03;;;;;;;22.38;60.12;100210.34;2081011;28;20068;-47
2021/06/04 03:23:36;;;;;;;3.25;2.75;;;;;;;22.39;59.93;100220.28;2082529;28;20040;-48
2021/06/04 03:24:39;;;;;;;3.45;3.15;;;;;;;22.39;59.95;100218.41;2081188;28;20052;-48
2021/06/04 03:25:43;;;;;;;3.22;2.88;;;;;;;22.39;60.22;100217.53;2082500;28;20211;-49
2021/06/04 03:26:44;;;;;;;3.13;2.85;;;;;;;22.39;59.92;100223.03;2081502;28;20409;-47
2021/06/04 03:27:45;;;;;;;3.00;2.70;;;;;;;22.38;59.98;100216.69;2081233;28;20037;-48
2021/06/04 03:28:48;;;;;;;3.50;3.00;;;;;;;22.38;59.83;100222.16;2082417;28;20432;-48
2021/06/04 03:29:50;;;;;;;3.28;2.97;;;;;;;22.37;59.98;100225.97;2081514;28;20065;-46
2021/06/04 03:30:52;;;;;;;3.40;3.10;;;;;;;22.39;59.97;100226.66;2082391;28;20395;-49
2021/06/04 03:31:54;;;;;;;;;;;;;;;22.34;60.02;100226.31;2081184;28;20040;-47
2021/06/04 03:32:55;;;;;;;3.53;2.72;;;;;;;22.35;60.21;100230.75;2080552;28;19913;-49
2021/06/04 03:33:55;;;;;;;3.53;2.95;;;;;;;22.36;60.11;100229.72;2082599;28;20037;-47
2021/06/04 03:34:56;;;;;;;3.20;2.80;;;;;;;22.36;60.06;100226.97;2081224;28;20795;-49
2021/06/04 03:35:57;;;;;;;3.17;2.87;;;;;;;22.37;59.95;100225.09;2082552;28;20032;-49
2021/06/04 03:36:59;;;;;;;3.03;2.80;;;;;;;22.36;59.91;100228.88;2080034;28;20068;-51
2021/06/04 03:38:01;;;;;;;3.55;3.10;;;;;;;22.37;59.88;100230.59;2080166;28;20033;-49
2021/06/04 03:39:04;;;;;;;3.17;2.88;;;;;;;22.37;59.98;100231.44;2082449;28;20063;-46
2021/06/04 03:40:18;;;;;;;4.97;3.05;;;;;;;22.37;59.92;100233.34;2080799;28;20033;-47
2021/06/04 03:41:23;;;;;;;3.17;2.80;;;;;;;22.36;59.95;100239.84;2081400;28;20034;-46
2021/06/04 03:42:28;;;;;;;3.20;2.90;;;;;;;22.36;60.08;100232.47;2082573;28;20037;-48
2021/06/04 03:43:29;;;;;;;4.13;2.88;;;;;;;22.37;60.10;100236.09;2081609;28;20112;-47
2021/06/04 03:44:32;;;;;;;3.13;2.83;;;;;;;22.37;59.86;100236.09;2082175;28;20022;-47
2021/06/04 03:45:36;;;;;;;3.78;2.72;;;;;;;22.37;60.14;100241.59;2078360;28;20275;-50
2021/06/04 03:46:37;;;;;;;3.47;2.83;;;;;;;22.37;59.91;100247.06;2077920;28;20029;-46
2021/06/04 03:47:38;;;;;;;3.10;2.80;;;;;;;22.37;60.14;100241.59;2082280;28;20037;-47
2021/06/04 03:48:38;;;;;;;4.27;3.03;;;;;;;22.37;59.80;100241.59;2080861;28;20029;-49
2021/06/04 03:49:39;;;;;;;3.03;2.80;;;;;;;22.38;59.90;100246.03;2081800;28;20411;-47
2021/06/04 03:50:40;;;;;;;2.85;2.47;;;;;;;22.36;60.24;100243.44;2081847;28;20323;-50
2021/06/04 03:51:42;;;;;;;3.13;2.73;;;;;;;22.36;60.13;100240.69;2079642;28;20077;-50
2021/06/04 03:52:43;;;;;;;3.15;2.65;;;;;;;22.37;60.13;100247.94;2082108;28;20034;-46
2021/06/04 03:53:43;;;;;;;4.33;3.00;;;;;;;22.37;59.85;100245.19;2080853;28;20079;-48
2021/06/04 03:54:47;;;;;;;3.40;3.07;;;;;;;22.37;60.00;100241.59;2082212;28;20025;-46
2021/06/04 03:55:48;;;;;;;2.88;2.58;;;;;;;22.37;59.92;100247.06;2082176;28;20025;-46
2021/06/04 03:56:50;;;;;;;3.25;2.60;;;;;;;22.38;59.96;100246.03;2080265;28;20116;-48
2021/06/04 03:57:52;;;;;;;2.70;2.45;;;;;;;22.37;59.80;100247.06;2079409;28;20029;-48
2021/06/04 03:58:54;;;;;;;3.58;3.00;;;;;;;22.36;60.03;100248.09;2080681;28;20029;-46
2021/06/04 03:59:55;;;;;;;3.40;3.10;;;;;;;22.35;59.80;100247.22;2081560;28;20032;-47
2021/06/04 04:01:05;;;;;;;3.50;2.95;;;;;;;22.34;60.21;100242.78;2080170;28;20395;-49
2021/06/04 04:02:09;;;;;;;3.97;2.92;;;;;;;22.34;60.17;100244.63;2080660;28;20032;-47
2021/06/04 04:03:11;;;;;;;3.58;2.95;;;;;;;22.34;60.51;100247.38;2081711;28;20029;-49
2021/06/04 04:04:13;;;;;;;4.03;2.92;;;;;;;22.32;60.60;100238.44;2081425;28;20025;-45
2021/06/04 04:05:15;;;;;;;4.55;3.05;;;;;;;22.32;60.69;100246.69;2080926;28;20025;-47
2021/06/04 04:06:15;;;;;;;;;;;;;;;22.25;60.37;100239.13;2082354;28;20036;-49
2021/06/04 04:07:16;;;;;;;4.05;2.92;;;;;;;22.28;60.64;100248.06;2080631;28;19919;-50
2021/06/04 04:08:19;;;;;;;4.20;2.67;;;;;;;22.29;60.78;100247.03;2081889;28;20446;-49
2021/06/04 04:09:20;;;;;;;2.55;2.35;;;;;;;22.30;60.56;100260.59;2081357;28;20028;-51
2021/06/04 04:10:24;;;;;;;2.97;2.67;;;;;;;22.30;60.68;100257.00;2080813;28;20044;-50
2021/06/04 04:11:25;;;;;;;3.33;3.03;;;;;;;22.29;60.70;100247.03;2081733;28;20044;-49
2021/06/04 04:12:26;;;;;;;3.20;2.80;;;;;;;22.29;60.57;100247.03;2081273;28;20021;-49
2021/06/04 04:13:27;;;;;;;;;;;;;;;22.23;60.75;100246.69;2082062;28;20506;-47
2021/06/04 04:14:28;;;;;;;3.10;2.80;;;;;;;22.26;60.72;100245.47;2080530;28;19917;-47
2021/06/04 04:15:30;;;;;;;3.73;3.27;;;;;;;22.26;60.90;100251.81;2078609;28;20052;-49
2021/06/04 04:16:30;;;;;;;2.75;2.50;;;;;;;22.25;60.80;100239.13;2081693;28;20076;-47
2021/06/04 04:17:31;;;;;;;3.20;2.90;;;;;;;22.27;60.81;100244.47;2080190;28;20037;-51
2021/06/04 04:18:32;;;;;;;3.33;3.03;;;;;;;22.32;60.45;100244.84;2081958;28;20021;-48
2021/06/04 04:19:32;;;;;;;3.37;3.07;;;;;;;22.34;60.22;100241.91;2082470;28;20037;-54
2021/06/04 04:20:37;;;;;;;2.97;2.63;;;;;;;22.35;60.32;100239.00;2072309;28;20312;-47
2021/06/04 04:21:38;;;;;;;7.82;2.90;;;;;;;22.38;60.08;100237.78;2071949;28;20091;-50
2021/06/04 04:22:39;;;;;;;7.03;2.97;;;;;;;22.39;60.16;100239.50;2080906;28;20028;-48
2021/06/04 04:23:41;;;;;;;4.20;2.43;;;;;;;22.40;60.17;100235.75;2081783;28;20483;-48
2021/06/04 04:24:42;;;;;;;3.75;3.10;;;;;;;22.39;60.27;100228.50;2079543;28;20029;-48
2021/06/04 04:25:44;;;;;;;6.70;3.00;;;;;;;22.39;60.17;100234.00;2081485;28;20711;-50
2021/06/04 04:26:45;;;;;;;5.72;2.88;;;;;;;22.41;59.99;100237.44;2080473;28;20112;-48
2021/06/04 04:27:45;;;;;;;3.30;3.00;;;;;;;22.42;60.28;100239.19;2080858;28;20711;-50
2021/06/04 04:28:47;;;;;;;9.47;3.33;;;;;;;22.42;60.18;100226.31;2081782;28;20271;-50
2021/06/04 04:29:47;;;;;;;;;;;;;;;22.37;60.26;100230.59;2080664;28;20474;-48
2021/06/04 04:30:48;;;;;;;5.28;3.10;;;;;;;22.39;60.09;100226.66;2081589;28;19960;-46
2021/06/04 04:31:55;;;;;;;3.43;3.13;;;;;;;22.40;60.14;100233.84;2081160;28;20065;-49
2021/06/04 04:32:55;;;;;;;4.35;2.92;;;;;;;22.41;60.33;100221.81;2077455;28;20324;-48
2021/06/04 04:33:57;;;;;;;3.30;3.00;;;;;;;22.42;60.26;100228.22;2081521;28;20033;-51
2021/06/04 04:34:57;;;;;;;3.10;2.80;;;;;;;22.42;60.12;100228.22;2081341;28;20203;-50
2021/06/04 04:35:58;;;;;;;3.10;2.60;;;;;;;22.43;60.07;100221.66;2080713;28;20467;-46
2021/06/04 04:37:02;;;;;;;3.08;2.65;;;;;;;22.44;60.07;100232.50;2078639;28;20053;-49
2021/06/04 04:38:05;;;;;;;3.05;2.47;;;;;;;22.43;59.96;100230.75;2080489;28;20084;-47
2021/06/04 04:39:14;;;;;;;2.72;2.47;;;;;;;22.45;60.09;100233.34;2081729;28;20025;-49
2021/06/04 04:40:16;;;;;;;6.78;2.72;;;;;;;22.45;60.02;100244.34;2079274;28;20026;-49
2021/06/04 04:41:16;;;;;;;;;;;;;;;22.41;60.27;100231.97;2082213;28;20025;-46
2021/06/04 04:42:21;;;;;;;4.13;2.70;;;;;;;22.41;60.35;100231.97;2080786;28;19956;-47
2021/06/04 04:43:22;;;;;;;3.30;2.72;;;;;;;22.43;60.28;100227.16;2082081;28;20035;-48
2021/06/04 04:44:28;;;;;;;2.77;2.23;;;;;;;22.43;60.17;100236.25;2081657;28;20017;-45
2021/06/04 04:45:29;;;;;;;5.18;2.67;;;;;;;22.45;60.14;100241.59;2077680;28;20025;-47
2021/06/04 04:46:31;;;;;;;3.38;2.75;;;;;;;22.44;60.31;100238.00;2082298;28;20100;-47
2021/06/04 04:47:31;;;;;;;3.58;3.00;;;;;;;22.44;59.99;100235.25;2081292;28;20053;-48
2021/06/04 04:48:32;;;;;;;3.20;2.33;;;;;;;22.44;60.27;100242.59;2079600;28;20390;-45
2021/06/04 04:49:33;;;;;;;2.88;2.50;;;;;;;22.45;60.30;100234.19;2080274;28;20035;-48
2021/06/04 04:50:36;;;;;;;3.00;2.70;;;;;;;22.44;60.24;100229.75;2079090;28;20472;-51
2021/06/04 04:51:39;;;;;;;2.88;2.55;;;;;;;22.45;60.18;100233.34;2081130;28;20033;-47
2021/06/04 04:52:39;;;;;;;3.08;2.78;;;;;;;22.45;60.24;100234.19;2079995;28;20072;-49
2021/06/04 04:53:40;;;;;;;3.60;3.17;;;;;;;22.47;60.26;100231.31;2080995;28;20036;-47
2021/06/04 04:54:44;;;;;;;3.53;2.70;;;;;;;22.45;60.25;100234.19;2080348;28;20032;-48
2021/06/04 04:55:44;;;;;;;2.65;2.45;;;;;;;22.46;60.30;100232.31;2080511;28;20098;-49
2021/06/04 04:56:47;;;;;;;2.70;2.50;;;;;;;22.46;60.00;100229.56;2081069;28;20026;-50
2021/06/04 04:57:48;;;;;;;3.22;2.55;;;;;;;22.46;60.00;100226.81;2071879;28;20033;-45
2021/06/04 04:58:48;;;;;;;3.13;2.80;;;;;;;22.45;60.17;100225.13;2072558;28;20036;-46
2021/06/04 04:59:49;;;;;;;3.27;2.80;;;;;;;22.45;60.07;100231.47;2081779;28;20114;-49
2021/06/04 05:00:50;;;;;;;4.83;2.43;;;;;;;22.46;60.03;100229.56;2080110;28;20035;-50
2021/06/04 05:01:51;;;;;;;2.92;2.58;;;;;;;22.46;60.24;100227.69;2082640;28;20033;-47
2021/06/04 05:02:52;;;;;;;3.40;2.67;;;;;;;22.45;60.22;100227.84;2081040;28;20033;-52
2021/06/04 05:03:52;;;;;;;3.17;2.75;;;;;;;22.46;60.33;100229.56;2081380;28;20359;-49